sensor_id;sensor_type;location;lat;lon;timestamp;pressure;altitude;pressure_sealevel;temperature;humidity
54554;BME280;40450;55.848;-3.572;2023-08-30T00:00:26;98476.66;;;15.66;65.60
54554;BME280;40450;55.848;-3.572;2023-08-30T00:02:56;98470.50;;;16.03;64.76
54554;BME280;40450;55.848;-3.572;2023-08-30T00:05:27;98461.23;;;15.96;64.92
54554;BME280;40450;55.848;-3.572;2023-08-30T00:07:57;98457.16;;;16.09;64.82
54554;BME280;40450;55.848;-3.572;2023-08-30T00:10:27;98460.70;;;15.93;64.69
54554;BME280;40450;55.848;-3.572;2023-08-30T00:12:58;98467.05;;;16.01;64.63
54554;BME280;40450;55.848;-3.572;2023-08-30T00:15:28;98478.59;;;15.72;65.80
54554;BME280;40450;55.848;-3.572;2023-08-30T00:17:59;98477.25;;;15.05;67.64
54554;BME280;40450;55.848;-3.572;2023-08-30T00:20:29;98478.62;;;15.66;66.73
54554;BME280;40450;55.848;-3.572;2023-08-30T00:22:59;98474.57;;;15.69;66.38
54554;BME280;40450;55.848;-3.572;2023-08-30T00:25:30;98475.66;;;15.58;66.27
54554;BME280;40450;55.848;-3.572;2023-08-30T00:28:00;98473.29;;;15.93;66.17
54554;BME280;40450;55.848;-3.572;2023-08-30T00:30:30;98478.33;;;15.33;67.50
54554;BME280;40450;55.848;-3.572;2023-08-30T00:33:01;98478.62;;;15.54;67.40
54554;BME280;40450;55.848;-3.572;2023-08-30T00:35:31;98474.11;;;15.84;66.38
54554;BME280;40450;55.848;-3.572;2023-08-30T00:38:01;98470.15;;;15.98;66.04
54554;BME280;40450;55.848;-3.572;2023-08-30T00:40:38;98469.24;;;16.18;65.89
54554;BME280;40450;55.848;-3.572;2023-08-30T00:43:02;98464.13;;;16.26;65.40
54554;BME280;40450;55.848;-3.572;2023-08-30T00:45:32;98467.98;;;16.06;65.96
54554;BME280;40450;55.848;-3.572;2023-08-30T00:48:03;98466.10;;;15.88;66.00
54554;BME280;40450;55.848;-3.572;2023-08-30T00:50:34;98461.00;;;16.13;65.91
54554;BME280;40450;55.848;-3.572;2023-08-30T00:53:04;98453.50;;;14.44;70.87
54554;BME280;40450;55.848;-3.572;2023-08-30T00:55:34;98454.76;;;14.97;68.95
54554;BME280;40450;55.848;-3.572;2023-08-30T00:58:05;98455.26;;;15.13;68.34
54554;BME280;40450;55.848;-3.572;2023-08-30T01:00:35;98460.81;;;15.28;68.22
54554;BME280;40450;55.848;-3.572;2023-08-30T01:03:06;98459.10;;;15.23;68.37
54554;BME280;40450;55.848;-3.572;2023-08-30T01:05:35;98456.72;;;14.91;69.72
54554;BME280;40450;55.848;-3.572;2023-08-30T01:08:06;98458.03;;;13.95;70.99
54554;BME280;40450;55.848;-3.572;2023-08-30T01:10:53;98460.72;;;15.02;69.86
54554;BME280;40450;55.848;-3.572;2023-08-30T01:13:12;98462.99;;;15.37;69.02
54554;BME280;40450;55.848;-3.572;2023-08-30T01:15:38;98461.04;;;15.92;68.22
54554;BME280;40450;55.848;-3.572;2023-08-30T01:18:07;98458.45;;;16.10;67.50
54554;BME280;40450;55.848;-3.572;2023-08-30T01:20:39;98458.29;;;16.15;67.03
54554;BME280;40450;55.848;-3.572;2023-08-30T01:23:15;98454.11;;;16.34;66.55
54554;BME280;40450;55.848;-3.572;2023-08-30T01:25:47;98460.24;;;15.76;67.06
54554;BME280;40450;55.848;-3.572;2023-08-30T01:28:09;98457.55;;;16.18;66.39
54554;BME280;40450;55.848;-3.572;2023-08-30T01:30:40;98463.05;;;15.58;68.06
54554;BME280;40450;55.848;-3.572;2023-08-30T01:33:10;98462.91;;;15.61;67.71
54554;BME280;40450;55.848;-3.572;2023-08-30T01:35:40;98464.71;;;15.10;68.75
54554;BME280;40450;55.848;-3.572;2023-08-30T01:38:10;98466.98;;;15.63;68.03
54554;BME280;40450;55.848;-3.572;2023-08-30T01:40:42;98463.13;;;16.01;66.59
54554;BME280;40450;55.848;-3.572;2023-08-30T01:43:11;98457.87;;;16.32;66.35
54554;BME280;40450;55.848;-3.572;2023-08-30T01:45:42;98458.01;;;15.81;67.18
54554;BME280;40450;55.848;-3.572;2023-08-30T01:48:13;98463.33;;;15.26;68.21
54554;BME280;40450;55.848;-3.572;2023-08-30T01:50:43;98458.34;;;15.72;67.47
54554;BME280;40450;55.848;-3.572;2023-08-30T01:53:13;98458.16;;;15.40;68.80
54554;BME280;40450;55.848;-3.572;2023-08-30T01:55:43;98461.39;;;15.39;68.07
54554;BME280;40450;55.848;-3.572;2023-08-30T01:58:13;98466.85;;;15.25;68.28
54554;BME280;40450;55.848;-3.572;2023-08-30T02:00:43;98467.61;;;15.68;67.63
54554;BME280;40450;55.848;-3.572;2023-08-30T02:03:14;98465.40;;;15.83;67.28
54554;BME280;40450;55.848;-3.572;2023-08-30T02:05:54;98462.03;;;15.78;67.41
54554;BME280;40450;55.848;-3.572;2023-08-30T02:08:15;98452.98;;;16.47;66.01
54554;BME280;40450;55.848;-3.572;2023-08-30T02:10:50;98451.80;;;16.57;65.41
54554;BME280;40450;55.848;-3.572;2023-08-30T02:13:16;98446.24;;;16.79;63.19
54554;BME280;40450;55.848;-3.572;2023-08-30T02:15:46;98447.68;;;16.69;64.10
54554;BME280;40450;55.848;-3.572;2023-08-30T02:18:16;98447.57;;;16.94;63.25
54554;BME280;40450;55.848;-3.572;2023-08-30T02:20:46;98447.64;;;17.27;63.03
54554;BME280;40450;55.848;-3.572;2023-08-30T02:23:16;98447.77;;;16.70;62.13
54554;BME280;40450;55.848;-3.572;2023-08-30T02:25:46;98448.86;;;15.95;64.67
54554;BME280;40450;55.848;-3.572;2023-08-30T02:28:17;98452.40;;;16.19;64.17
54554;BME280;40450;55.848;-3.572;2023-08-30T02:30:47;98452.22;;;16.19;64.17
54554;BME280;40450;55.848;-3.572;2023-08-30T02:33:18;98456.18;;;15.32;66.92
54554;BME280;40450;55.848;-3.572;2023-08-30T02:35:48;98456.72;;;15.40;66.57
54554;BME280;40450;55.848;-3.572;2023-08-30T02:38:18;98460.22;;;15.62;65.94
54554;BME280;40450;55.848;-3.572;2023-08-30T02:40:49;98462.72;;;15.72;65.52
54554;BME280;40450;55.848;-3.572;2023-08-30T02:43:19;98462.55;;;15.47;65.54
54554;BME280;40450;55.848;-3.572;2023-08-30T02:45:49;98463.46;;;15.51;65.71
54554;BME280;40450;55.848;-3.572;2023-08-30T02:48:20;98465.03;;;15.59;65.54
54554;BME280;40450;55.848;-3.572;2023-08-30T02:50:50;98459.97;;;15.74;65.36
54554;BME280;40450;55.848;-3.572;2023-08-30T02:53:20;98461.05;;;15.68;64.97
54554;BME280;40450;55.848;-3.572;2023-08-30T02:55:51;98460.74;;;15.77;65.42
54554;BME280;40450;55.848;-3.572;2023-08-30T02:58:21;98463.94;;;15.93;64.80
54554;BME280;40450;55.848;-3.572;2023-08-30T03:00:52;98467.60;;;16.04;64.52
54554;BME280;40450;55.848;-3.572;2023-08-30T03:03:22;98465.54;;;16.02;64.26
54554;BME280;40450;55.848;-3.572;2023-08-30T03:05:52;98463.59;;;15.74;63.13
54554;BME280;40450;55.848;-3.572;2023-08-30T03:08:23;98462.23;;;15.42;65.20
54554;BME280;40450;55.848;-3.572;2023-08-30T03:10:53;98459.34;;;15.72;64.87
54554;BME280;40450;55.848;-3.572;2023-08-30T03:13:23;98460.14;;;15.69;65.15
54554;BME280;40450;55.848;-3.572;2023-08-30T03:15:54;98458.38;;;15.48;64.34
54554;BME280;40450;55.848;-3.572;2023-08-30T03:18:24;98455.59;;;15.47;65.08
54554;BME280;40450;55.848;-3.572;2023-08-30T03:20:59;98454.05;;;15.80;64.73
54554;BME280;40450;55.848;-3.572;2023-08-30T03:23:26;98451.35;;;15.94;64.35
54554;BME280;40450;55.848;-3.572;2023-08-30T03:25:55;98457.46;;;15.66;64.86
54554;BME280;40450;55.848;-3.572;2023-08-30T03:28:26;98457.00;;;15.82;64.47
54554;BME280;40450;55.848;-3.572;2023-08-30T03:30:56;98455.37;;;15.78;64.29
54554;BME280;40450;55.848;-3.572;2023-08-30T03:33:26;98453.14;;;15.86;63.92
54554;BME280;40450;55.848;-3.572;2023-08-30T03:35:58;98448.50;;;15.93;63.97
54554;BME280;40450;55.848;-3.572;2023-08-30T03:38:27;98451.76;;;15.46;64.66
54554;BME280;40450;55.848;-3.572;2023-08-30T03:40:57;98453.54;;;15.33;64.89
54554;BME280;40450;55.848;-3.572;2023-08-30T03:43:27;98453.80;;;15.28;64.91
54554;BME280;40450;55.848;-3.572;2023-08-30T03:45:58;98458.05;;;15.10;65.52
54554;BME280;40450;55.848;-3.572;2023-08-30T03:48:28;98454.67;;;14.71;66.61
54554;BME280;40450;55.848;-3.572;2023-08-30T03:50:58;98460.08;;;15.05;65.90
54554;BME280;40450;55.848;-3.572;2023-08-30T03:53:29;98456.57;;;15.14;65.75
54554;BME280;40450;55.848;-3.572;2023-08-30T03:55:59;98453.43;;;14.98;65.98
54554;BME280;40450;55.848;-3.572;2023-08-30T03:58:29;98453.45;;;15.05;65.62
54554;BME280;40450;55.848;-3.572;2023-08-30T04:01:00;98457.07;;;15.24;65.43
54554;BME280;40450;55.848;-3.572;2023-08-30T04:03:30;98459.49;;;15.37;65.25
54554;BME280;40450;55.848;-3.572;2023-08-30T04:06:00;98458.29;;;15.50;64.79
54554;BME280;40450;55.848;-3.572;2023-08-30T04:08:31;98460.34;;;15.58;64.50
54554;BME280;40450;55.848;-3.572;2023-08-30T04:11:02;98466.49;;;15.58;63.82
54554;BME280;40450;55.848;-3.572;2023-08-30T04:13:31;98469.36;;;15.61;63.74
54554;BME280;40450;55.848;-3.572;2023-08-30T04:16:02;98471.49;;;15.54;63.59
54554;BME280;40450;55.848;-3.572;2023-08-30T04:18:33;98472.27;;;15.28;63.74
54554;BME280;40450;55.848;-3.572;2023-08-30T04:21:03;98468.71;;;14.43;66.29
54554;BME280;40450;55.848;-3.572;2023-08-30T04:23:33;98468.40;;;13.74;68.94
54554;BME280;40450;55.848;-3.572;2023-08-30T04:26:03;98467.61;;;13.86;68.10
54554;BME280;40450;55.848;-3.572;2023-08-30T04:28:34;98464.82;;;13.87;67.59
54554;BME280;40450;55.848;-3.572;2023-08-30T04:31:04;98462.60;;;14.12;68.03
54554;BME280;40450;55.848;-3.572;2023-08-30T04:33:34;98460.90;;;13.92;68.51
54554;BME280;40450;55.848;-3.572;2023-08-30T04:36:05;98460.51;;;13.92;68.68
54554;BME280;40450;55.848;-3.572;2023-08-30T04:38:35;98463.33;;;13.96;68.75
54554;BME280;40450;55.848;-3.572;2023-08-30T04:41:05;98465.04;;;14.04;68.52
54554;BME280;40450;55.848;-3.572;2023-08-30T04:43:36;98466.14;;;14.32;67.82
54554;BME280;40450;55.848;-3.572;2023-08-30T04:46:06;98463.67;;;14.58;67.39
54554;BME280;40450;55.848;-3.572;2023-08-30T04:48:36;98468.39;;;14.43;67.37
54554;BME280;40450;55.848;-3.572;2023-08-30T04:51:07;98468.75;;;14.49;67.21
54554;BME280;40450;55.848;-3.572;2023-08-30T04:53:37;98472.34;;;14.39;67.23
54554;BME280;40450;55.848;-3.572;2023-08-30T04:56:12;98471.30;;;14.58;67.12
54554;BME280;40450;55.848;-3.572;2023-08-30T04:58:38;98468.20;;;14.78;66.65
54554;BME280;40450;55.848;-3.572;2023-08-30T05:01:09;98473.38;;;14.90;66.30
54554;BME280;40450;55.848;-3.572;2023-08-30T05:03:39;98478.17;;;14.80;66.22
54554;BME280;40450;55.848;-3.572;2023-08-30T05:06:09;98480.22;;;14.70;66.25
54554;BME280;40450;55.848;-3.572;2023-08-30T05:08:39;98482.50;;;14.50;66.71
54554;BME280;40450;55.848;-3.572;2023-08-30T05:11:09;98487.61;;;13.87;67.84
54554;BME280;40450;55.848;-3.572;2023-08-30T05:13:40;98483.11;;;14.37;67.44
54554;BME280;40450;55.848;-3.572;2023-08-30T05:16:10;98483.32;;;14.37;67.69
54554;BME280;40450;55.848;-3.572;2023-08-30T05:18:40;98484.09;;;14.40;67.62
54554;BME280;40450;55.848;-3.572;2023-08-30T05:21:11;98489.17;;;14.27;67.95
54554;BME280;40450;55.848;-3.572;2023-08-30T05:23:41;98488.72;;;14.12;68.63
54554;BME280;40450;55.848;-3.572;2023-08-30T05:26:11;98495.72;;;14.32;68.25
54554;BME280;40450;55.848;-3.572;2023-08-30T05:28:42;98502.48;;;14.63;68.24
54554;BME280;40450;55.848;-3.572;2023-08-30T05:31:12;98501.60;;;14.74;67.13
54554;BME280;40450;55.848;-3.572;2023-08-30T05:33:42;98500.62;;;14.86;66.81
54554;BME280;40450;55.848;-3.572;2023-08-30T05:36:13;98499.34;;;14.97;66.69
54554;BME280;40450;55.848;-3.572;2023-08-30T05:38:43;98505.56;;;15.03;66.76
54554;BME280;40450;55.848;-3.572;2023-08-30T05:41:14;98509.01;;;15.06;66.60
54554;BME280;40450;55.848;-3.572;2023-08-30T05:43:44;98511.19;;;15.09;66.39
54554;BME280;40450;55.848;-3.572;2023-08-30T05:46:14;98516.72;;;14.95;66.19
54554;BME280;40450;55.848;-3.572;2023-08-30T05:48:44;98520.64;;;14.19;68.18
54554;BME280;40450;55.848;-3.572;2023-08-30T05:51:15;98525.18;;;14.46;66.83
54554;BME280;40450;55.848;-3.572;2023-08-30T05:53:45;98525.75;;;14.43;67.52
54554;BME280;40450;55.848;-3.572;2023-08-30T05:56:15;98526.81;;;14.78;67.25
54554;BME280;40450;55.848;-3.572;2023-08-30T05:58:46;98535.80;;;14.96;66.93
54554;BME280;40450;55.848;-3.572;2023-08-30T06:01:18;98538.09;;;15.07;66.96
54554;BME280;40450;55.848;-3.572;2023-08-30T06:03:46;98539.17;;;15.27;66.31
54554;BME280;40450;55.848;-3.572;2023-08-30T06:06:17;98539.20;;;15.41;66.34
54554;BME280;40450;55.848;-3.572;2023-08-30T06:08:47;98539.23;;;15.36;66.00
54554;BME280;40450;55.848;-3.572;2023-08-30T06:11:17;98541.44;;;15.44;65.63
54554;BME280;40450;55.848;-3.572;2023-08-30T06:13:48;98548.66;;;15.04;66.32
54554;BME280;40450;55.848;-3.572;2023-08-30T06:16:18;98550.80;;;14.70;67.79
54554;BME280;40450;55.848;-3.572;2023-08-30T06:18:49;98551.66;;;15.27;66.65
54554;BME280;40450;55.848;-3.572;2023-08-30T06:21:19;98550.61;;;15.17;66.93
54554;BME280;40450;55.848;-3.572;2023-08-30T06:23:49;98549.56;;;14.81;66.62
54554;BME280;40450;55.848;-3.572;2023-08-30T06:26:20;98550.00;;;15.11;67.13
54554;BME280;40450;55.848;-3.572;2023-08-30T06:28:50;98553.95;;;15.35;66.58
54554;BME280;40450;55.848;-3.572;2023-08-30T06:31:20;98554.44;;;15.07;67.15
54554;BME280;40450;55.848;-3.572;2023-08-30T06:33:51;98550.23;;;14.99;67.40
54554;BME280;40450;55.848;-3.572;2023-08-30T06:36:21;98547.54;;;14.84;67.83
54554;BME280;40450;55.848;-3.572;2023-08-30T06:38:52;98544.49;;;15.26;66.93
54554;BME280;40450;55.848;-3.572;2023-08-30T06:41:22;98544.71;;;15.50;66.48
54554;BME280;40450;55.848;-3.572;2023-08-30T06:43:52;98542.58;;;15.37;66.97
54554;BME280;40450;55.848;-3.572;2023-08-30T06:46:22;98543.18;;;15.03;67.40
54554;BME280;40450;55.848;-3.572;2023-08-30T06:48:52;98547.31;;;15.63;66.78
54554;BME280;40450;55.848;-3.572;2023-08-30T06:51:23;98548.53;;;15.68;66.19
54554;BME280;40450;55.848;-3.572;2023-08-30T06:53:53;98546.72;;;15.50;66.90
54554;BME280;40450;55.848;-3.572;2023-08-30T06:56:23;98549.52;;;15.60;66.57
54554;BME280;40450;55.848;-3.572;2023-08-30T06:58:54;98546.24;;;14.57;69.06
54554;BME280;40450;55.848;-3.572;2023-08-30T07:01:24;98548.87;;;15.51;67.38
54554;BME280;40450;55.848;-3.572;2023-08-30T07:03:54;98551.34;;;15.55;66.46
54554;BME280;40450;55.848;-3.572;2023-08-30T07:06:25;98551.63;;;15.43;66.91
54554;BME280;40450;55.848;-3.572;2023-08-30T07:08:55;98554.85;;;15.31;67.14
54554;BME280;40450;55.848;-3.572;2023-08-30T07:11:25;98554.96;;;14.74;67.54
54554;BME280;40450;55.848;-3.572;2023-08-30T07:13:56;98555.65;;;15.18;67.75
54554;BME280;40450;55.848;-3.572;2023-08-30T07:16:26;98562.88;;;12.26;77.09
54554;BME280;40450;55.848;-3.572;2023-08-30T07:18:57;98557.31;;;14.57;70.05
54554;BME280;40450;55.848;-3.572;2023-08-30T07:21:27;98557.47;;;14.53;70.17
54554;BME280;40450;55.848;-3.572;2023-08-30T07:23:57;98556.40;;;14.38;69.83
54554;BME280;40450;55.848;-3.572;2023-08-30T07:26:28;98559.22;;;15.50;68.63
54554;BME280;40450;55.848;-3.572;2023-08-30T07:28:58;98558.59;;;15.52;67.97
54554;BME280;40450;55.848;-3.572;2023-08-30T07:31:28;98564.25;;;14.41;69.34
54554;BME280;40450;55.848;-3.572;2023-08-30T07:33:59;98572.49;;;15.73;68.48
54554;BME280;40450;55.848;-3.572;2023-08-30T07:36:30;98576.80;;;15.61;68.24
54554;BME280;40450;55.848;-3.572;2023-08-30T07:38:59;98584.77;;;15.77;67.09
54554;BME280;40450;55.848;-3.572;2023-08-30T07:41:30;98594.19;;;11.55;80.37
54554;BME280;40450;55.848;-3.572;2023-08-30T07:44:00;98589.75;;;11.21;82.72
54554;BME280;40450;55.848;-3.572;2023-08-30T07:46:30;98585.30;;;11.49;82.64
54554;BME280;40450;55.848;-3.572;2023-08-30T07:49:01;98583.67;;;11.17;83.65
54554;BME280;40450;55.848;-3.572;2023-08-30T07:51:31;98587.47;;;10.15;86.07
54554;BME280;40450;55.848;-3.572;2023-08-30T07:54:01;98589.23;;;10.92;84.78
54554;BME280;40450;55.848;-3.572;2023-08-30T07:56:32;98588.48;;;10.88;83.53
54554;BME280;40450;55.848;-3.572;2023-08-30T07:59:02;98594.83;;;9.78;84.86
54554;BME280;40450;55.848;-3.572;2023-08-30T08:01:33;98595.01;;;11.08;82.48
54554;BME280;40450;55.848;-3.572;2023-08-30T08:04:03;98600.07;;;9.08;87.98
54554;BME280;40450;55.848;-3.572;2023-08-30T08:06:33;98603.11;;;8.91;88.46
54554;BME280;40450;55.848;-3.572;2023-08-30T08:09:04;98598.23;;;10.34;84.73
54554;BME280;40450;55.848;-3.572;2023-08-30T08:11:34;98604.45;;;8.92;87.77
54554;BME280;40450;55.848;-3.572;2023-08-30T08:14:04;98610.74;;;6.96;95.24
54554;BME280;40450;55.848;-3.572;2023-08-30T08:16:35;98608.28;;;8.27;91.95
54554;BME280;40450;55.848;-3.572;2023-08-30T08:19:05;98604.21;;;9.71;88.51
54554;BME280;40450;55.848;-3.572;2023-08-30T08:21:36;98596.05;;;9.37;89.15
54554;BME280;40450;55.848;-3.572;2023-08-30T08:24:06;98593.74;;;9.98;85.84
54554;BME280;40450;55.848;-3.572;2023-08-30T08:26:36;98601.89;;;7.63;90.65
54554;BME280;40450;55.848;-3.572;2023-08-30T08:29:07;98594.73;;;9.24;88.92
54554;BME280;40450;55.848;-3.572;2023-08-30T08:31:37;98596.19;;;10.39;85.19
54554;BME280;40450;55.848;-3.572;2023-08-30T08:34:13;98597.81;;;9.61;86.47
54554;BME280;40450;55.848;-3.572;2023-08-30T08:36:39;98608.95;;;7.65;92.11
54554;BME280;40450;55.848;-3.572;2023-08-30T08:39:08;98602.46;;;10.01;88.20
54554;BME280;40450;55.848;-3.572;2023-08-30T08:41:40;98601.59;;;10.33;86.20
54554;BME280;40450;55.848;-3.572;2023-08-30T08:44:14;98604.43;;;11.64;83.97
54554;BME280;40450;55.848;-3.572;2023-08-30T08:46:40;98605.03;;;9.43;86.26
54554;BME280;40450;55.848;-3.572;2023-08-30T08:49:13;98604.45;;;8.67;87.56
54554;BME280;40450;55.848;-3.572;2023-08-30T08:51:40;98610.78;;;8.30;89.06
54554;BME280;40450;55.848;-3.572;2023-08-30T08:54:11;98603.69;;;9.98;84.71
54554;BME280;40450;55.848;-3.572;2023-08-30T08:56:40;98606.30;;;9.07;87.98
54554;BME280;40450;55.848;-3.572;2023-08-30T08:59:11;98603.28;;;10.11;84.96
54554;BME280;40450;55.848;-3.572;2023-08-30T09:01:41;98602.61;;;11.11;82.58
54554;BME280;40450;55.848;-3.572;2023-08-30T09:04:12;98595.67;;;11.20;80.20
54554;BME280;40450;55.848;-3.572;2023-08-30T09:06:42;98595.25;;;12.06;77.43
54554;BME280;40450;55.848;-3.572;2023-08-30T09:09:12;98589.37;;;8.56;87.09
54554;BME280;40450;55.848;-3.572;2023-08-30T09:11:42;98597.47;;;7.16;89.64
54554;BME280;40450;55.848;-3.572;2023-08-30T09:14:13;98596.94;;;6.61;92.93
54554;BME280;40450;55.848;-3.572;2023-08-30T09:16:53;98600.50;;;6.64;92.69
54554;BME280;40450;55.848;-3.572;2023-08-30T09:19:19;98595.20;;;9.71;86.74
54554;BME280;40450;55.848;-3.572;2023-08-30T09:21:50;98599.78;;;9.46;87.00
54554;BME280;40450;55.848;-3.572;2023-08-30T09:24:14;98611.46;;;7.78;89.18
54554;BME280;40450;55.848;-3.572;2023-08-30T09:26:48;98615.18;;;7.69;91.12
54554;BME280;40450;55.848;-3.572;2023-08-30T09:29:16;98601.68;;;8.98;87.30
54554;BME280;40450;55.848;-3.572;2023-08-30T09:31:46;98600.75;;;8.02;89.09
54554;BME280;40450;55.848;-3.572;2023-08-30T09:34:16;98599.34;;;7.90;89.19
54554;BME280;40450;55.848;-3.572;2023-08-30T09:36:46;98596.98;;;8.27;87.93
54554;BME280;40450;55.848;-3.572;2023-08-30T09:39:17;98605.01;;;8.20;88.54
54554;BME280;40450;55.848;-3.572;2023-08-30T09:41:48;98599.19;;;8.16;88.20
54554;BME280;40450;55.848;-3.572;2023-08-30T09:44:19;98594.03;;;8.58;87.31
54554;BME280;40450;55.848;-3.572;2023-08-30T09:46:50;98599.40;;;8.34;87.76
54554;BME280;40450;55.848;-3.572;2023-08-30T09:49:19;98600.25;;;7.84;90.27
54554;BME280;40450;55.848;-3.572;2023-08-30T09:51:50;98603.24;;;8.03;88.98
54554;BME280;40450;55.848;-3.572;2023-08-30T09:54:19;98602.34;;;7.81;89.25
54554;BME280;40450;55.848;-3.572;2023-08-30T09:56:49;98607.04;;;6.73;91.78
54554;BME280;40450;55.848;-3.572;2023-08-30T09:59:19;98609.67;;;6.93;90.20
54554;BME280;40450;55.848;-3.572;2023-08-30T10:01:50;98601.83;;;7.71;87.90
54554;BME280;40450;55.848;-3.572;2023-08-30T10:04:21;98592.91;;;8.49;86.59
54554;BME280;40450;55.848;-3.572;2023-08-30T10:06:50;98598.93;;;7.87;88.80
54554;BME280;40450;55.848;-3.572;2023-08-30T10:09:21;98600.22;;;7.79;89.40
54554;BME280;40450;55.848;-3.572;2023-08-30T10:11:51;98597.54;;;9.63;83.66
54554;BME280;40450;55.848;-3.572;2023-08-30T10:14:22;98595.37;;;10.42;82.59
54554;BME280;40450;55.848;-3.572;2023-08-30T10:16:56;98599.89;;;10.79;81.17
54554;BME280;40450;55.848;-3.572;2023-08-30T10:19:24;98603.36;;;8.85;85.22
54554;BME280;40450;55.848;-3.572;2023-08-30T10:21:59;98616.86;;;7.65;87.26
54554;BME280;40450;55.848;-3.572;2023-08-30T10:24:24;98611.98;;;9.27;84.64
54554;BME280;40450;55.848;-3.572;2023-08-30T10:26:54;98604.97;;;9.44;82.99
54554;BME280;40450;55.848;-3.572;2023-08-30T10:29:24;98606.44;;;10.45;79.85
54554;BME280;40450;55.848;-3.572;2023-08-30T10:31:54;98610.39;;;9.05;83.37
54554;BME280;40450;55.848;-3.572;2023-08-30T10:34:31;98606.69;;;10.10;79.90
54554;BME280;40450;55.848;-3.572;2023-08-30T10:37:00;98601.52;;;10.36;78.93
54554;BME280;40450;55.848;-3.572;2023-08-30T10:39:33;98599.98;;;11.08;78.47
54554;BME280;40450;55.848;-3.572;2023-08-30T10:41:56;98605.05;;;10.22;81.29
54554;BME280;40450;55.848;-3.572;2023-08-30T10:44:25;98613.19;;;9.30;82.89
54554;BME280;40450;55.848;-3.572;2023-08-30T10:46:56;98617.08;;;9.54;83.29
54554;BME280;40450;55.848;-3.572;2023-08-30T10:49:26;98617.76;;;9.66;81.35
54554;BME280;40450;55.848;-3.572;2023-08-30T10:51:57;98612.06;;;10.55;78.46
54554;BME280;40450;55.848;-3.572;2023-08-30T10:54:36;98614.61;;;10.26;79.78
54554;BME280;40450;55.848;-3.572;2023-08-30T10:56:58;98607.64;;;10.49;80.91
54554;BME280;40450;55.848;-3.572;2023-08-30T10:59:28;98613.92;;;10.15;81.46
54554;BME280;40450;55.848;-3.572;2023-08-30T11:02:01;98613.77;;;10.32;81.64
54554;BME280;40450;55.848;-3.572;2023-08-30T11:04:29;98618.72;;;9.89;83.58
54554;BME280;40450;55.848;-3.572;2023-08-30T11:06:59;98616.04;;;10.22;82.66
54554;BME280;40450;55.848;-3.572;2023-08-30T11:09:30;98614.35;;;9.85;82.41
54554;BME280;40450;55.848;-3.572;2023-08-30T11:12:05;98616.54;;;10.60;81.43
54554;BME280;40450;55.848;-3.572;2023-08-30T11:14:30;98619.78;;;9.67;81.04
54554;BME280;40450;55.848;-3.572;2023-08-30T11:17:00;98618.22;;;9.73;81.86
54554;BME280;40450;55.848;-3.572;2023-08-30T11:19:31;98615.48;;;10.36;82.24
54554;BME280;40450;55.848;-3.572;2023-08-30T11:22:01;98618.14;;;11.70;79.03
54554;BME280;40450;55.848;-3.572;2023-08-30T11:24:34;98617.27;;;12.31;76.10
54554;BME280;40450;55.848;-3.572;2023-08-30T11:27:02;98618.19;;;11.56;77.61
54554;BME280;40450;55.848;-3.572;2023-08-30T11:29:32;98625.49;;;12.87;75.78
54554;BME280;40450;55.848;-3.572;2023-08-30T11:32:02;98624.97;;;13.15;72.68
54554;BME280;40450;55.848;-3.572;2023-08-30T11:34:32;98634.64;;;11.74;76.03
54554;BME280;40450;55.848;-3.572;2023-08-30T11:37:03;98636.58;;;12.46;75.61
54554;BME280;40450;55.848;-3.572;2023-08-30T11:39:34;98629.21;;;10.79;78.58
54554;BME280;40450;55.848;-3.572;2023-08-30T11:42:03;98630.08;;;11.04;79.28
54554;BME280;40450;55.848;-3.572;2023-08-30T11:44:35;98624.49;;;11.70;78.43
54554;BME280;40450;55.848;-3.572;2023-08-30T11:47:04;98623.40;;;11.19;78.74
54554;BME280;40450;55.848;-3.572;2023-08-30T11:49:34;98616.72;;;11.12;78.28
54554;BME280;40450;55.848;-3.572;2023-08-30T11:52:05;98623.35;;;11.80;77.81
54554;BME280;40450;55.848;-3.572;2023-08-30T11:54:35;98623.55;;;12.33;78.02
54554;BME280;40450;55.848;-3.572;2023-08-30T11:57:05;98619.57;;;13.95;73.73
54554;BME280;40450;55.848;-3.572;2023-08-30T11:59:36;98616.71;;;13.30;71.86
54554;BME280;40450;55.848;-3.572;2023-08-30T12:02:07;98619.53;;;14.33;67.82
54554;BME280;40450;55.848;-3.572;2023-08-30T12:04:40;98622.54;;;14.75;67.23
54554;BME280;40450;55.848;-3.572;2023-08-30T12:07:06;98627.12;;;12.88;71.26
54554;BME280;40450;55.848;-3.572;2023-08-30T12:09:37;98626.12;;;12.54;74.31
54554;BME280;40450;55.848;-3.572;2023-08-30T12:12:09;98616.04;;;13.83;68.87
54554;BME280;40450;55.848;-3.572;2023-08-30T12:14:38;98615.59;;;15.45;65.40
54554;BME280;40450;55.848;-3.572;2023-08-30T12:17:08;98618.46;;;13.45;70.17
54554;BME280;40450;55.848;-3.572;2023-08-30T12:19:38;98613.89;;;14.16;66.73
54554;BME280;40450;55.848;-3.572;2023-08-30T12:22:09;98611.32;;;14.22;68.39
54554;BME280;40450;55.848;-3.572;2023-08-30T12:24:41;98608.99;;;14.06;69.05
54554;BME280;40450;55.848;-3.572;2023-08-30T12:27:09;98615.01;;;13.82;69.14
54554;BME280;40450;55.848;-3.572;2023-08-30T12:29:40;98605.38;;;16.14;62.97
54554;BME280;40450;55.848;-3.572;2023-08-30T12:32:10;98606.50;;;14.20;68.83
54554;BME280;40450;55.848;-3.572;2023-08-30T12:34:40;98606.31;;;13.80;69.67
54554;BME280;40450;55.848;-3.572;2023-08-30T12:37:10;98607.76;;;13.56;69.65
54554;BME280;40450;55.848;-3.572;2023-08-30T12:39:41;98609.02;;;14.55;68.08
54554;BME280;40450;55.848;-3.572;2023-08-30T12:42:11;98610.25;;;15.24;64.91
54554;BME280;40450;55.848;-3.572;2023-08-30T12:44:41;98611.72;;;15.66;63.97
54554;BME280;40450;55.848;-3.572;2023-08-30T12:47:12;98614.54;;;15.52;65.47
54554;BME280;40450;55.848;-3.572;2023-08-30T12:49:42;98608.82;;;13.15;72.29
54554;BME280;40450;55.848;-3.572;2023-08-30T12:52:12;98607.01;;;13.29;72.44
54554;BME280;40450;55.848;-3.572;2023-08-30T12:54:43;98606.56;;;13.06;73.99
54554;BME280;40450;55.848;-3.572;2023-08-30T12:57:13;98605.79;;;14.14;70.27
54554;BME280;40450;55.848;-3.572;2023-08-30T12:59:43;98600.80;;;14.16;70.76
54554;BME280;40450;55.848;-3.572;2023-08-30T13:02:14;98590.30;;;14.91;67.20
54554;BME280;40450;55.848;-3.572;2023-08-30T13:04:44;98599.07;;;12.46;72.06
54554;BME280;40450;55.848;-3.572;2023-08-30T13:07:14;98594.88;;;13.57;72.28